Latest Weather Observations for New May Downs

IDQ60801

Issued at 8:05 pm EST Sunday 23 November 2014 (issued every 30 minutes, with the page automatically refreshed every 10 minutes)

About weather observations | Map of weather stations | Latest weather observations for QLD | Other Formats
Station Details ID: 037059 Name: NEW MAY DOWNS Lat: -20.59 Lon: 139.34 Height: 392.0 m
Data from the previous 72 hours. | See also: Recent months for locations in Queensland
Date/Time
EST
Temp
°C
App
Temp
°C
Dew
Point
Rel
Hum
%
Delta-T
°C
Wind Press
QNH
hPa
Press
MSL
hPa
Rain
since 9 am
mm
Dir
 
Spd
km/h
Gust
km/h
Spd
kts
Gust
kts
23/08:00pm 36.3 34.2 11.2 22 15.1 ESE 13 22 7 12 - - 0.0
23/07:30pm 35.3 33.0 11.7 24 14.2 SE 15 22 8 12 - - 0.0
23/07:00pm 36.6 33.2 11.4 22 15.2 SE 20 30 11 16 - - 0.0
23/06:30pm 37.4 36.9 12.1 22 15.5 E 6 9 3 5 - - 0.0
23/06:00pm 37.8 37.2 12.4 22 15.6 ENE 7 13 4 7 - - 0.0
23/05:30pm 37.8 36.5 12.4 22 15.6 ENE 11 20 6 11 - - 0.0
23/05:00pm 38.2 37.1 12.0 21 16.0 NE 9 17 5 9 - - 0.0
23/04:30pm 39.1 38.0 12.0 20 16.7 N 9 19 5 10 - - 0.0
23/04:00pm 39.6 39.6 12.4 20 16.8 WNW 4 9 2 5 - - 0.0
23/03:30pm 39.4 37.8 11.5 19 17.0 ENE 11 20 6 11 - - 0.0
23/03:00pm 38.1 37.2 12.7 22 15.7 E 9 15 5 8 - - 0.0
23/02:30pm 38.0 36.7 12.6 22 15.7 NNE 11 19 6 10 - - 0.0
23/02:00pm 38.7 36.8 11.7 20 16.5 NNE 13 32 7 17 - - 0.0
23/01:30pm 38.6 37.0 13.8 23 15.6 NE 15 26 8 14 - - 0.0
23/01:00pm 37.5 35.6 14.1 24 14.7 NE 17 28 9 15 - - 0.0
23/12:30pm 37.4 36.1 14.7 26 14.4 NE 15 24 8 13 - - 0.0
23/12:00pm 36.7 35.7 14.6 26 14.0 ENE 13 28 7 15 - - 0.0
23/11:30am 37.1 36.4 15.5 27 13.8 ENE 13 24 7 13 - - 0.0
23/11:00am 34.5 33.2 14.9 31 12.3 NE 15 26 8 14 - - 0.0
23/10:30am 34.9 33.2 14.7 29 12.7 E 17 26 9 14 - - 0.0
23/10:00am 34.0 31.8 15.0 32 12.0 NE 20 35 11 19 - - 0.0
23/09:30am 33.7 31.4 15.7 34 11.4 ENE 22 33 12 18 - - 0.0
23/09:00am 32.4 29.8 15.0 35 10.9 ENE 22 32 12 17 - - 0.0
23/08:30am 32.0 30.1 15.1 36 10.6 ENE 19 28 10 15 - - 0.0
23/08:00am 31.1 29.2 15.1 38 10.0 ENE 19 24 10 13 - - 0.0
23/07:30am 31.4 30.9 15.8 39 9.9 NE 13 19 7 10 - - 0.0
23/07:00am 29.3 30.9 17.8 50 7.4 ENE 6 9 3 5 - - 0.0
23/06:30am 26.6 29.4 17.9 59 5.6 CALM 0 0 0 0 - - 0.0
23/06:00am 26.0 28.3 17.6 60 5.4 ENE 2 4 1 2 - - 0.0
23/05:30am 26.8 28.9 18.1 59 5.6 NNE 4 6 2 3 - - 0.0
23/05:00am 26.4 28.1 17.2 57 5.8 NNW 4 6 2 3 - - 0.0
23/04:30am 26.3 27.7 16.3 54 6.3 ESE 4 6 2 3 - - 0.0
23/04:00am 26.2 27.1 16.2 54 6.2 ESE 6 9 3 5 - - 0.0
23/03:30am 27.1 29.1 17.0 54 6.4 NNW 2 7 1 4 - - 0.0
23/03:00am 27.6 29.7 17.2 53 6.6 E 2 4 1 2 - - 0.0
23/02:30am 28.1 29.9 17.3 52 6.9 E 4 6 2 3 - - 0.0
23/02:00am 28.1 29.4 17.0 51 7.1 ENE 6 9 3 5 - - 0.0
23/01:30am 28.4 28.8 17.3 51 7.1 E 11 15 6 8 - - 0.0
23/01:00am 28.4 28.7 16.0 47 7.8 NE 9 9 5 5 - - 0.0
23/12:30am 28.0 28.6 14.3 43 8.4 E 4 6 2 3 - - 0.0
23/12:00am 29.0 29.1 14.4 41 9.0 N 7 9 4 5 - - 0.0
 
Date/Time
EST
Temp
°C
App
Temp
°C
Dew
Point
Rel
Hum
%
Delta-T
°C
Wind Press
QNH
hPa
Press
MSL
hPa
Rain
since 9 am
mm
Dir
 
Spd
km/h
Gust
km/h
Spd
kts
Gust
kts
22/11:30pm 29.1 30.7 14.9 42 8.8 CALM 0 0 0 0 - - 0.0
22/11:00pm 29.3 30.4 14.7 41 9.0 E 2 4 1 2 - - 0.0
22/10:30pm 29.4 30.1 14.4 40 9.2 SE 4 6 2 3 - - 0.0
22/10:00pm 29.6 30.3 14.6 40 9.2 ESE 4 6 2 3 - - 0.0
22/09:30pm 30.5 31.6 14.6 38 9.8 SSE 2 7 1 4 - - 0.0
22/09:00pm 31.3 31.6 14.9 37 10.2 S 7 13 4 7 - - 0.0
22/08:30pm 31.5 31.8 14.6 36 10.5 S 6 7 3 4 - - 0.0
22/08:00pm 32.3 32.8 14.9 35 10.9 SSW 6 9 3 5 - - 0.0
22/07:30pm 32.9 32.8 15.0 34 11.2 S 9 15 5 8 - - 0.0
22/07:00pm 33.5 32.7 15.0 32 11.6 S 13 19 7 10 - - 0.0
22/06:30pm 34.4 33.1 15.8 33 11.9 S 17 24 9 13 - - 0.0
22/06:00pm 35.0 32.4 14.8 29 12.7 WSW 22 33 12 18 - - 0.0
22/05:30pm 35.4 34.0 13.5 26 13.6 WSW 13 22 7 12 - - 0.0
22/05:00pm 35.1 35.0 13.9 28 13.2 W 7 13 4 7 - - 0.0
22/04:30pm 34.9 32.6 14.2 28 12.9 WSW 19 26 10 14 - - 0.0
22/04:00pm 34.8 32.1 14.7 30 12.6 WSW 22 32 12 17 - - 0.0
22/03:30pm 35.9 33.5 14.5 27 13.5 WSW 20 32 11 17 - - 0.0
22/03:00pm 37.7 36.4 13.7 24 15.0 SW 13 30 7 16 - - 0.0
22/02:30pm 36.0 33.5 14.1 27 13.7 SW 20 32 11 17 - - 0.0
22/02:00pm 37.6 35.5 13.6 24 15.0 WSW 17 30 9 16 - - 0.0
22/01:30pm 37.6 37.0 12.3 22 15.5 SW 7 15 4 8 - - 0.0
22/01:00pm 36.5 35.0 12.0 23 14.9 W 11 24 6 13 - - 0.0
22/12:30pm 37.8 34.8 12.4 22 15.6 WSW 20 26 11 14 - - 0.0
22/12:00pm 37.5 35.9 12.8 22 15.3 W 13 24 7 13 - - 0.0
22/11:30am 36.7 35.3 13.5 25 14.4 W 13 20 7 11 - - 0.0
22/11:00am 36.0 35.4 13.5 26 14.0 WNW 9 17 5 9 - - 0.0
22/10:30am 35.1 34.6 13.9 28 13.2 NW 9 17 5 9 - - 0.0
22/10:00am 34.4 33.1 14.8 30 12.3 WNW 15 22 8 12 - - 0.0
22/09:30am 33.2 31.7 15.2 33 11.3 NW 17 22 9 12 - - 0.0
22/09:00am 32.2 30.0 14.8 35 10.9 NW 20 28 11 15 - - 0.0
22/08:30am 31.4 30.5 15.8 39 9.9 WNW 15 22 8 12 - - 0.0
22/08:00am 29.9 29.5 16.3 43 8.6 WNW 13 19 7 10 - - 0.0
22/07:30am 28.3 29.8 17.5 52 6.9 NW 6 9 3 5 - - 0.0
22/07:00am 27.1 29.2 18.1 58 5.8 S 4 7 2 4 - - 0.0
22/06:30am 25.4 27.7 18.6 66 4.4 E 4 6 2 3 - - 0.0
22/06:00am 24.9 27.9 18.4 67 4.2 CALM 0 0 0 0 - - 0.0
22/05:30am 25.3 27.7 18.7 67 4.3 N 4 7 2 4 - - 0.0
22/05:00am 25.4 27.9 19.1 68 4.1 N 4 9 2 5 - - 0.0
22/04:30am 25.5 25.2 19.2 68 4.1 NW 19 30 10 16 - - 0.0
22/04:00am 25.8 25.3 18.7 65 4.6 NW 19 28 10 15 - - 0.0
22/03:30am 25.7 24.7 18.9 66 4.4 NNW 22 33 12 18 - - 0.0
22/03:00am 25.6 25.4 19.3 68 4.1 N 19 30 10 16 - - 0.0
22/02:30am 25.8 26.4 19.4 67 4.2 N 15 24 8 13 - - 0.0
22/02:00am 26.1 24.9 19.2 65 4.5 NNE 24 41 13 22 - - 0.0
22/01:30am 26.4 23.6 19.0 63 4.8 NNE 32 52 17 28 - - 0.0
22/01:00am 28.6 24.6 17.5 51 7.1 NE 35 57 19 31 - - 0.0
22/12:50am 29.5 26.6 17.0 47 8.0 NE 28 52 15 28 - - 0.0
22/12:45am 30.0 28.4 16.4 44 8.6 NW 20 32 11 17 - - 0.0
22/12:36am 30.1 24.3 16.1 42 8.8 N 41 67 22 36 - - 0.0
22/12:30am 30.4 25.1 15.3 40 9.4 NNE 37 63 20 34 - - 0.0
22/12:12am 31.4 27.1 13.2 33 11.1 NE 28 50 15 27 - - 0.0
22/12:00am 32.5 30.3 13.2 31 11.8 NNE 17 22 9 12 - - 0.0
 
Date/Time
EST
Temp
°C
App
Temp
°C
Dew
Point
Rel
Hum
%
Delta-T
°C
Wind Press
QNH
hPa
Press
MSL
hPa
Rain
since 9 am
mm
Dir
 
Spd
km/h
Gust
km/h
Spd
kts
Gust
kts
21/11:30pm 31.9 29.4 13.6 32 11.2 ENE 19 28 10 15 - - 0.0
21/11:00pm 31.8 29.0 13.1 32 11.4 ESE 20 32 11 17 - - 0.0
21/10:30pm 31.4 30.2 12.7 32 11.3 SSE 11 17 6 9 - - 0.0
21/10:00pm 31.1 29.9 12.9 32 11.0 SE 11 17 6 9 - - 0.0
21/09:30pm 30.9 28.7 13.2 34 10.7 SE 17 24 9 13 - - 0.0
21/09:00pm 30.4 29.2 14.1 37 10.0 SE 13 24 7 13 - - 0.0
21/08:30pm 30.5 29.0 14.2 37 10.0 SE 15 24 8 13 - - 0.0
21/08:00pm 30.4 28.5 15.7 41 9.2 SSE 20 33 11 18 - - 0.0
21/07:30pm 30.5 28.5 16.5 43 8.9 SE 22 32 12 17 - - 0.0
21/07:00pm 32.0 28.3 15.9 38 10.2 SE 30 48 16 26 - - 0.0
21/06:57pm 32.9 29.4 15.4 35 11.0 SSE 28 48 15 26 - - 0.0
21/06:30pm 34.0 34.6 15.9 33 11.5 N 7 13 4 7 - - 0.0
21/06:00pm 34.3 33.9 15.2 31 12.1 N 11 20 6 11 - - 0.0
21/05:30pm 34.6 34.3 15.5 32 12.1 NNW 11 17 6 9 - - 0.0
21/05:00pm 35.0 35.6 15.8 31 12.3 NW 7 15 4 8 - - 0.0
21/04:30pm 34.4 34.8 17.2 36 11.2 N 11 17 6 9 - - 0.0
21/04:00pm 34.0 34.3 15.9 33 11.5 N 9 13 5 7 - - 0.0
21/03:30pm 31.5 30.3 17.4 43 9.1 NNE 20 35 11 19 - - 0.0
21/03:00pm 30.9 27.8 17.6 45 8.6 N 30 39 16 21 - - 0.0
21/02:57pm 32.5 28.5 16.3 37 10.3 N 32 46 17 25 - - 0.0
21/02:35pm 33.9 29.0 16.3 35 11.3 NE 37 56 20 30 - - 0.0
21/02:30pm 34.7 29.9 16.5 33 11.7 NNE 37 54 20 29 - - 0.0
21/02:00pm 40.2 37.9 12.9 20 17.0 NW 17 28 9 15 - - 0.0
21/01:30pm 39.0 37.7 11.2 19 16.9 WNW 9 22 5 12 - - 0.0
21/01:00pm 39.8 38.0 13.4 21 16.6 NNW 15 28 8 15 - - 0.0
21/12:30pm 39.5 36.7 13.1 21 16.5 W 20 30 11 16 - - 0.0
21/12:00pm 40.7 39.2 14.1 21 16.9 NNW 15 44 8 24 - - 0.0
21/11:30am 39.1 36.6 14.2 23 15.8 WNW 20 33 11 18 - - 0.0
21/11:00am 39.1 37.0 14.8 23 15.5 NNW 19 28 10 15 - - 0.0
21/10:30am 38.8 36.9 15.2 24 15.1 NW 19 32 10 17 - - 0.0
21/10:00am 37.4 35.5 15.2 26 14.2 NNW 19 33 10 18 - - 0.0
21/09:30am 36.4 34.4 15.5 29 13.4 NNW 20 32 11 17 - - 0.0
21/09:00am 35.7 34.4 15.9 30 12.7 NNW 17 24 9 13 - - 0.0
21/08:30am 34.7 33.9 17.0 35 11.5 NNW 17 24 9 13 - - 0.0
21/08:00am 33.3 33.1 17.5 39 10.3 NNW 15 24 8 13 - - 0.0
21/07:30am 31.9 33.0 18.8 45 8.6 NNW 11 19 6 10 - - 0.0
21/07:00am 30.8 32.4 19.2 50 7.7 NNW 9 13 5 7 - - 0.0
21/06:30am 29.6 32.7 19.6 55 6.6 N 2 6 1 3 - - 0.0
21/06:00am 29.2 32.1 19.8 57 6.2 N 4 9 2 5 - - 0.0
21/05:30am 29.2 31.7 19.8 57 6.2 NNE 6 9 3 5 - - 0.0
21/05:00am 29.8 32.4 20.1 56 6.5 N 6 9 3 5 - - 0.0
21/04:30am 30.3 32.0 20.2 54 6.8 NNW 11 15 6 8 - - 0.0
21/04:00am 30.6 32.1 20.5 54 6.8 NW 13 20 7 11 - - 0.0
21/03:30am 30.9 32.4 20.5 54 7.0 NW 13 20 7 11 - - 0.0
21/03:00am 31.1 33.8 20.7 54 7.0 N 7 11 4 6 - - 0.0
21/02:30am 31.5 34.1 20.4 51 7.5 NNW 7 13 4 7 - - 0.0
21/02:00am 31.8 34.1 19.4 47 8.2 N 6 7 3 4 - - 0.0
21/01:30am 32.5 33.4 20.1 48 8.3 NNW 15 20 8 11 - - 0.0
21/01:00am 33.1 33.6 19.2 43 9.3 NNW 15 22 8 12 - - 0.0
21/12:30am 33.2 34.4 17.4 39 10.3 NNW 7 13 4 7 - - 0.0
21/12:00am 33.8 33.8 17.1 37 10.8 NNW 13 22 7 12 - - 0.0
 
Date/Time
EST
Temp
°C
App
Temp
°C
Dew
Point
Rel
Hum
%
Delta-T
°C
Wind Press
QNH
hPa
Press
MSL
hPa
Rain
since 9 am
mm
Dir
 
Spd
km/h
Gust
km/h
Spd
kts
Gust
kts
20/11:30pm 34.5 32.9 15.9 33 11.9 NNW 19 26 10 14 - - 0.0
20/11:00pm 34.0 32.5 9.3 22 14.3 N 7 13 4 7 - - 0.0
20/10:30pm 35.3 33.2 6.6 17 16.0 N 7 11 4 6 - - 0.0
20/10:00pm 33.8 31.1 2.6 14 16.2 NNE 6 7 3 4 - - 0.0
20/09:30pm 36.0 32.8 3.3 13 17.4 N 9 11 5 6 - - 0.0
20/09:00pm 36.3 33.4 1.2 11 18.1 N 6 7 3 4 - - 0.0
20/08:30pm 37.0 34.1 1.7 11 18.4 N 6 7 3 4 - - 0.0

Other Formats:

Comma delimited format used in spreadsheet applications
http://www.bom.gov.au/fwo/IDQ60801/IDQ60801.94349.axf

JavaScript Object Notation format (JSON) in row-major order
http://www.bom.gov.au/fwo/IDQ60801/IDQ60801.94349.json